sensor_id;sensor_type;location;lat;lon;timestamp;pressure;altitude;pressure_sealevel;temperature;humidity
34921;BME280;21128;50.016;20.002;2023-04-26T00:01:01;98243.02;;;7.36;100.00
34921;BME280;21128;50.016;20.002;2023-04-26T00:03:30;98249.21;;;7.34;100.00
34921;BME280;21128;50.016;20.002;2023-04-26T00:05:58;98235.32;;;7.34;100.00
34921;BME280;21128;50.016;20.002;2023-04-26T00:08:27;98247.56;;;7.33;100.00
34921;BME280;21128;50.016;20.002;2023-04-26T00:10:54;98248.53;;;7.32;100.00
34921;BME280;21128;50.016;20.002;2023-04-26T00:13:21;98261.70;;;7.31;100.00
34921;BME280;21128;50.016;20.002;2023-04-26T00:15:48;98256.63;;;7.29;100.00
34921;BME280;21128;50.016;20.002;2023-04-26T00:18:15;98261.02;;;7.29;100.00
34921;BME280;21128;50.016;20.002;2023-04-26T00:20:43;98256.63;;;7.29;100.00
34921;BME280;21128;50.016;20.002;2023-04-26T00:23:10;98258.41;;;7.29;100.00
34921;BME280;21128;50.016;20.002;2023-04-26T00:25:37;98265.28;;;7.30;100.00
34921;BME280;21128;50.016;20.002;2023-04-26T00:28:04;98260.06;;;7.30;100.00
34921;BME280;21128;50.016;20.002;2023-04-26T00:30:31;98273.02;;;7.31;100.00
34921;BME280;21128;50.016;20.002;2023-04-26T00:33:00;98265.28;;;7.30;100.00
34921;BME280;21128;50.016;20.002;2023-04-26T00:35:26;98265.28;;;7.30;100.00
34921;BME280;21128;50.016;20.002;2023-04-26T00:37:53;98263.64;;;7.29;100.00
34921;BME280;21128;50.016;20.002;2023-04-26T00:40:20;98267.22;;;7.28;100.00
34921;BME280;21128;50.016;20.002;2023-04-26T00:42:47;98270.80;;;7.27;100.00
34921;BME280;21128;50.016;20.002;2023-04-26T00:45:14;98271.62;;;7.27;99.80
34921;BME280;21128;50.016;20.002;2023-04-26T00:47:41;98276.02;;;7.27;100.00
34921;BME280;21128;50.016;20.002;2023-04-26T00:50:09;98274.38;;;7.26;99.21
34921;BME280;21128;50.016;20.002;2023-04-26T00:52:36;98270.11;;;7.25;98.02
34921;BME280;21128;50.016;20.002;2023-04-26T00:55:04;98268.47;;;7.24;97.72
34921;BME280;21128;50.016;20.002;2023-04-26T00:57:32;98265.13;;;7.22;97.68
34921;BME280;21128;50.016;20.002;2023-04-26T00:59:59;98270.36;;;7.22;97.09
34921;BME280;21128;50.016;20.002;2023-04-26T01:02:26;98273.94;;;7.21;97.33
34921;BME280;21128;50.016;20.002;2023-04-26T01:04:54;98276.69;;;7.19;96.39
34921;BME280;21128;50.016;20.002;2023-04-26T01:07:22;98278.48;;;7.19;95.80
34921;BME280;21128;50.016;20.002;2023-04-26T01:09:49;98275.18;;;7.17;95.84
34921;BME280;21128;50.016;20.002;2023-04-26T01:12:17;98283.98;;;7.16;95.96
34921;BME280;21128;50.016;20.002;2023-04-26T01:14:45;98271.99;;;7.13;95.77
34921;BME280;21128;50.016;20.002;2023-04-26T01:17:13;98284.38;;;7.11;94.94
34921;BME280;21128;50.016;20.002;2023-04-26T01:19:49;98290.84;;;7.07;94.60
34921;BME280;21128;50.016;20.002;2023-04-26T01:22:17;98292.05;;;7.03;93.09
34921;BME280;21128;50.016;20.002;2023-04-26T01:24:46;98294.94;;;7.00;93.77
34921;BME280;21128;50.016;20.002;2023-04-26T01:27:14;98298.62;;;6.97;94.40
34921;BME280;21128;50.016;20.002;2023-04-26T01:29:42;98293.81;;;6.93;93.05
34921;BME280;21128;50.016;20.002;2023-04-26T01:32:10;98297.52;;;6.90;93.67
34921;BME280;21128;50.016;20.002;2023-04-26T01:34:37;98296.12;;;6.86;93.06
34921;BME280;21128;50.016;20.002;2023-04-26T01:37:04;98309.45;;;6.83;93.47
34921;BME280;21128;50.016;20.002;2023-04-26T01:39:34;98321.09;;;6.79;92.41
34921;BME280;21128;50.016;20.002;2023-04-26T01:42:03;98310.92;;;6.76;92.70
34921;BME280;21128;50.016;20.002;2023-04-26T01:44:30;98312.84;;;6.74;92.88
34921;BME280;21128;50.016;20.002;2023-04-26T01:46:57;98313.09;;;6.71;92.25
34921;BME280;21128;50.016;20.002;2023-04-26T01:49:24;98320.37;;;6.67;92.95
34921;BME280;21128;50.016;20.002;2023-04-26T01:51:51;98324.08;;;6.65;92.68
34921;BME280;21128;50.016;20.002;2023-04-26T01:54:19;98316.75;;;6.59;91.87
34921;BME280;21128;50.016;20.002;2023-04-26T01:56:46;98329.35;;;6.54;91.86
34921;BME280;21128;50.016;20.002;2023-04-26T01:59:13;98327.28;;;6.47;91.13
34921;BME280;21128;50.016;20.002;2023-04-26T02:01:41;98329.30;;;6.44;91.33
34921;BME280;21128;50.016;20.002;2023-04-26T02:04:09;98321.02;;;6.39;91.34
34921;BME280;21128;50.016;20.002;2023-04-26T02:06:36;98329.25;;;6.34;91.47
34921;BME280;21128;50.016;20.002;2023-04-26T02:09:04;98336.62;;;6.29;91.29
34921;BME280;21128;50.016;20.002;2023-04-26T02:11:30;98325.75;;;6.24;91.24
34921;BME280;21128;50.016;20.002;2023-04-26T02:13:58;98331.20;;;6.21;91.79
34921;BME280;21128;50.016;20.002;2023-04-26T02:16:25;98329.82;;;6.17;92.02
34921;BME280;21128;50.016;20.002;2023-04-26T02:18:52;98331.02;;;6.13;91.97
34921;BME280;21128;50.016;20.002;2023-04-26T02:21:20;98332.23;;;6.09;91.37
34921;BME280;21128;50.016;20.002;2023-04-26T02:23:48;98337.71;;;6.06;92.06
34921;BME280;21128;50.016;20.002;2023-04-26T02:26:15;98336.16;;;6.03;91.48
34921;BME280;21128;50.016;20.002;2023-04-26T02:28:42;98334.64;;;6.01;91.76
34921;BME280;21128;50.016;20.002;2023-04-26T02:31:09;98336.55;;;5.99;91.76
34921;BME280;21128;50.016;20.002;2023-04-26T02:33:36;98337.61;;;5.96;92.07
34921;BME280;21128;50.016;20.002;2023-04-26T02:36:04;98341.30;;;5.93;92.14
34921;BME280;21128;50.016;20.002;2023-04-26T02:38:34;98342.26;;;5.92;92.36
34921;BME280;21128;50.016;20.002;2023-04-26T02:41:02;98345.00;;;5.91;92.07
34921;BME280;21128;50.016;20.002;2023-04-26T02:43:29;98339.88;;;5.89;92.58
34921;BME280;21128;50.016;20.002;2023-04-26T02:45:56;98335.72;;;5.87;93.26
34921;BME280;21128;50.016;20.002;2023-04-26T02:48:26;98340.24;;;5.85;93.09
34921;BME280;21128;50.016;20.002;2023-04-26T02:50:53;98347.50;;;5.81;94.22
34921;BME280;21128;50.016;20.002;2023-04-26T02:53:20;98341.81;;;5.76;93.69
34921;BME280;21128;50.016;20.002;2023-04-26T02:55:47;98340.42;;;5.72;93.80
34921;BME280;21128;50.016;20.002;2023-04-26T02:58:14;98348.47;;;5.69;93.47
34921;BME280;21128;50.016;20.002;2023-04-26T03:00:45;98354.06;;;5.64;94.22
34921;BME280;21128;50.016;20.002;2023-04-26T03:03:13;98345.77;;;5.59;94.29
34921;BME280;21128;50.016;20.002;2023-04-26T03:05:40;98347.81;;;5.56;94.49
34921;BME280;21128;50.016;20.002;2023-04-26T03:08:07;98346.26;;;5.53;94.57
34921;BME280;21128;50.016;20.002;2023-04-26T03:10:34;98352.55;;;5.51;94.66
34921;BME280;21128;50.016;20.002;2023-04-26T03:13:02;98343.34;;;5.47;95.12
34921;BME280;21128;50.016;20.002;2023-04-26T03:15:30;98354.94;;;5.43;95.09
34921;BME280;21128;50.016;20.002;2023-04-26T03:17:57;98350.93;;;5.39;95.24
34921;BME280;21128;50.016;20.002;2023-04-26T03:20:24;98359.92;;;5.34;96.24
34921;BME280;21128;50.016;20.002;2023-04-26T03:22:51;98361.83;;;5.32;96.71
34921;BME280;21128;50.016;20.002;2023-04-26T03:25:18;98363.73;;;5.30;95.96
34921;BME280;21128;50.016;20.002;2023-04-26T03:27:45;98367.26;;;5.29;96.57
34921;BME280;21128;50.016;20.002;2023-04-26T03:30:13;98365.61;;;5.28;96.73
34921;BME280;21128;50.016;20.002;2023-04-26T03:32:40;98369.41;;;5.24;96.41
34921;BME280;21128;50.016;20.002;2023-04-26T03:35:07;98372.97;;;5.23;96.54
34921;BME280;21128;50.016;20.002;2023-04-26T03:37:35;98380.91;;;5.22;97.21
34921;BME280;21128;50.016;20.002;2023-04-26T03:40:08;98377.58;;;5.20;97.48
34921;BME280;21128;50.016;20.002;2023-04-26T03:42:36;98378.66;;;5.17;96.99
34921;BME280;21128;50.016;20.002;2023-04-26T03:45:04;98388.37;;;5.15;97.45
34921;BME280;21128;50.016;20.002;2023-04-26T03:47:31;98385.16;;;5.12;97.43
34921;BME280;21128;50.016;20.002;2023-04-26T03:49:58;98395.57;;;5.12;97.58
34921;BME280;21128;50.016;20.002;2023-04-26T03:52:25;98390.48;;;5.10;97.68
34921;BME280;21128;50.016;20.002;2023-04-26T03:54:52;98401.16;;;5.07;98.22
34921;BME280;21128;50.016;20.002;2023-04-26T03:57:19;98399.50;;;5.06;97.70
34921;BME280;21128;50.016;20.002;2023-04-26T03:59:46;98405.75;;;5.03;97.07
34921;BME280;21128;50.016;20.002;2023-04-26T04:02:13;98408.35;;;5.03;97.01
34921;BME280;21128;50.016;20.002;2023-04-26T04:04:40;98407.53;;;5.03;97.03
34921;BME280;21128;50.016;20.002;2023-04-26T04:07:07;98406.58;;;5.04;98.21
34921;BME280;21128;50.016;20.002;2023-04-26T04:09:34;98422.32;;;5.02;98.40
34921;BME280;21128;50.016;20.002;2023-04-26T04:12:01;98409.42;;;5.01;97.87
34921;BME280;21128;50.016;20.002;2023-04-26T04:14:29;98417.23;;;5.01;97.57
34921;BME280;21128;50.016;20.002;2023-04-26T04:16:56;98418.19;;;5.00;98.23
34921;BME280;21128;50.016;20.002;2023-04-26T04:19:22;98428.48;;;5.01;98.20
34921;BME280;21128;50.016;20.002;2023-04-26T04:21:49;98428.36;;;5.03;97.69
34921;BME280;21128;50.016;20.002;2023-04-26T04:24:17;98430.87;;;5.04;98.05
34921;BME280;21128;50.016;20.002;2023-04-26T04:26:45;98428.14;;;5.06;97.14
34921;BME280;21128;50.016;20.002;2023-04-26T04:29:12;98427.90;;;5.09;97.64
34921;BME280;21128;50.016;20.002;2023-04-26T04:31:39;98436.41;;;5.11;97.10
34921;BME280;21128;50.016;20.002;2023-04-26T04:34:07;98442.69;;;5.08;96.93
34921;BME280;21128;50.016;20.002;2023-04-26T04:36:34;98455.22;;;5.03;97.29
34921;BME280;21128;50.016;20.002;2023-04-26T04:39:01;98451.09;;;5.01;97.18
34921;BME280;21128;50.016;20.002;2023-04-26T04:41:29;98452.74;;;5.02;98.10
34921;BME280;21128;50.016;20.002;2023-04-26T04:43:58;98461.26;;;5.04;98.05
34921;BME280;21128;50.016;20.002;2023-04-26T04:46:26;98460.22;;;5.06;98.00
34921;BME280;21128;50.016;20.002;2023-04-26T04:48:52;98455.02;;;5.06;97.56
34921;BME280;21128;50.016;20.002;2023-04-26T04:51:20;98466.25;;;5.07;96.63
34921;BME280;21128;50.016;20.002;2023-04-26T04:53:47;98456.55;;;5.09;96.62
34921;BME280;21128;50.016;20.002;2023-04-26T04:56:13;98460.80;;;5.10;96.88
34921;BME280;21128;50.016;20.002;2023-04-26T04:58:41;98467.66;;;5.11;96.39
34921;BME280;21128;50.016;20.002;2023-04-26T05:01:08;98461.42;;;5.14;97.26
34921;BME280;21128;50.016;20.002;2023-04-26T05:03:35;98460.34;;;5.16;97.28
34921;BME280;21128;50.016;20.002;2023-04-26T05:06:03;98467.45;;;5.25;96.98
34921;BME280;21128;50.016;20.002;2023-04-26T05:08:29;98472.78;;;5.35;97.21
34921;BME280;21128;50.016;20.002;2023-04-26T05:10:56;98470.41;;;5.43;96.52
34921;BME280;21128;50.016;20.002;2023-04-26T05:13:25;98472.30;;;5.52;96.81
34921;BME280;21128;50.016;20.002;2023-04-26T05:15:51;98472.66;;;5.59;95.91
34921;BME280;21128;50.016;20.002;2023-04-26T05:18:18;98475.02;;;5.62;95.61
34921;BME280;21128;50.016;20.002;2023-04-26T05:20:45;98474.67;;;5.67;95.24
34921;BME280;21128;50.016;20.002;2023-04-26T05:23:12;98479.29;;;5.74;95.14
34921;BME280;21128;50.016;20.002;2023-04-26T05:25:39;98480.47;;;5.81;94.96
34921;BME280;21128;50.016;20.002;2023-04-26T05:28:06;98480.47;;;5.92;95.05
34921;BME280;21128;50.016;20.002;2023-04-26T05:30:38;98487.21;;;6.06;95.05
34921;BME280;21128;50.016;20.002;2023-04-26T05:33:05;98480.30;;;6.16;94.63
34921;BME280;21128;50.016;20.002;2023-04-26T05:35:33;98483.69;;;6.28;94.13
34921;BME280;21128;50.016;20.002;2023-04-26T05:38:00;98487.47;;;6.35;93.48
34921;BME280;21128;50.016;20.002;2023-04-26T05:40:27;98486.30;;;6.28;93.42
34921;BME280;21128;50.016;20.002;2023-04-26T05:42:54;98482.73;;;6.29;92.75
34921;BME280;21128;50.016;20.002;2023-04-26T05:45:21;98487.73;;;6.32;92.94
34921;BME280;21128;50.016;20.002;2023-04-26T05:47:48;98491.60;;;6.38;92.17
34921;BME280;21128;50.016;20.002;2023-04-26T05:50:17;98487.81;;;6.42;92.33
34921;BME280;21128;50.016;20.002;2023-04-26T05:52:43;98495.58;;;6.53;92.17
34921;BME280;21128;50.016;20.002;2023-04-26T05:55:10;98494.83;;;6.62;91.47
34921;BME280;21128;50.016;20.002;2023-04-26T05:57:39;98494.60;;;6.65;90.34
34921;BME280;21128;50.016;20.002;2023-04-26T06:00:06;98491.59;;;6.70;90.99
34921;BME280;21128;50.016;20.002;2023-04-26T06:02:37;98490.14;;;6.77;90.14
34921;BME280;21128;50.016;20.002;2023-04-26T06:05:04;98496.88;;;6.80;89.83
34921;BME280;21128;50.016;20.002;2023-04-26T06:07:32;98501.61;;;6.86;89.77
34921;BME280;21128;50.016;20.002;2023-04-26T06:10:02;98496.95;;;6.89;89.19
34921;BME280;21128;50.016;20.002;2023-04-26T06:12:29;98503.59;;;6.93;88.45
34921;BME280;21128;50.016;20.002;2023-04-26T06:14:56;98500.02;;;6.94;88.63
34921;BME280;21128;50.016;20.002;2023-04-26T06:17:23;98491.22;;;6.95;88.43
34921;BME280;21128;50.016;20.002;2023-04-26T06:19:51;98498.83;;;6.98;88.41
34921;BME280;21128;50.016;20.002;2023-04-26T06:22:18;98506.58;;;7.10;89.13
34921;BME280;21128;50.016;20.002;2023-04-26T06:24:44;98484.91;;;7.19;87.32
34921;BME280;21128;50.016;20.002;2023-04-26T06:27:11;98486.28;;;7.23;87.65
34921;BME280;21128;50.016;20.002;2023-04-26T06:29:38;98496.37;;;7.27;87.58
34921;BME280;21128;50.016;20.002;2023-04-26T06:32:05;98498.06;;;7.38;87.70
34921;BME280;21128;50.016;20.002;2023-04-26T06:34:32;98498.69;;;7.51;86.95
34921;BME280;21128;50.016;20.002;2023-04-26T06:36:59;98505.70;;;7.51;85.41
34921;BME280;21128;50.016;20.002;2023-04-26T06:39:26;98494.39;;;7.41;85.65
34921;BME280;21128;50.016;20.002;2023-04-26T06:41:53;98485.72;;;7.40;84.96
34921;BME280;21128;50.016;20.002;2023-04-26T06:44:20;98488.06;;;7.43;85.07
34921;BME280;21128;50.016;20.002;2023-04-26T06:46:47;98495.11;;;7.52;85.35
34921;BME280;21128;50.016;20.002;2023-04-26T06:49:15;98494.32;;;7.61;85.55
34921;BME280;21128;50.016;20.002;2023-04-26T06:51:42;98488.98;;;7.73;84.49
34921;BME280;21128;50.016;20.002;2023-04-26T06:54:10;98496.01;;;7.72;83.25
34921;BME280;21128;50.016;20.002;2023-04-26T06:56:38;98493.80;;;7.68;82.69
34921;BME280;21128;50.016;20.002;2023-04-26T06:59:06;98502.34;;;7.70;83.27
34921;BME280;21128;50.016;20.002;2023-04-26T07:01:34;98512.28;;;7.76;82.71
34921;BME280;21128;50.016;20.002;2023-04-26T07:04:02;98500.19;;;7.84;83.05
34921;BME280;21128;50.016;20.002;2023-04-26T07:06:30;98510.96;;;7.91;83.00
34921;BME280;21128;50.016;20.002;2023-04-26T07:08:58;98507.92;;;7.96;82.53
34921;BME280;21128;50.016;20.002;2023-04-26T07:11:25;98513.16;;;7.96;83.17
34921;BME280;21128;50.016;20.002;2023-04-26T07:13:52;98507.92;;;7.96;82.43
34921;BME280;21128;50.016;20.002;2023-04-26T07:16:19;98513.46;;;8.02;81.75
34921;BME280;21128;50.016;20.002;2023-04-26T07:18:46;98488.66;;;8.06;74.23
34921;BME280;21128;50.016;20.002;2023-04-26T07:21:14;98506.16;;;8.06;71.69
34921;BME280;21128;50.016;20.002;2023-04-26T07:23:41;98496.66;;;8.05;69.15
34921;BME280;21128;50.016;20.002;2023-04-26T07:26:11;98489.63;;;8.05;67.40
34921;BME280;21128;50.016;20.002;2023-04-26T07:28:41;98519.91;;;7.98;66.70
34921;BME280;21128;50.016;20.002;2023-04-26T07:31:11;98500.92;;;8.06;66.68
34921;BME280;21128;50.016;20.002;2023-04-26T07:33:38;98517.75;;;8.13;66.57
34921;BME280;21128;50.016;20.002;2023-04-26T07:36:08;98510.34;;;8.28;67.27
34921;BME280;21128;50.016;20.002;2023-04-26T07:38:35;98520.39;;;8.32;66.38
34921;BME280;21128;50.016;20.002;2023-04-26T07:41:02;98520.53;;;8.31;65.88
34921;BME280;21128;50.016;20.002;2023-04-26T07:43:30;98516.80;;;8.24;65.79
34921;BME280;21128;50.016;20.002;2023-04-26T07:46:03;98522.45;;;8.19;65.17
34921;BME280;21128;50.016;20.002;2023-04-26T07:48:30;98514.88;;;8.16;64.97
34921;BME280;21128;50.016;20.002;2023-04-26T07:51:14;98516.39;;;8.18;63.28
34921;BME280;21128;50.016;20.002;2023-04-26T07:53:43;98527.27;;;8.24;64.14
34921;BME280;21128;50.016;20.002;2023-04-26T07:56:10;98526.48;;;8.33;64.14
34921;BME280;21128;50.016;20.002;2023-04-26T07:58:37;98526.67;;;8.41;63.92
34921;BME280;21128;50.016;20.002;2023-04-26T08:01:05;98529.97;;;8.53;64.08
34921;BME280;21128;50.016;20.002;2023-04-26T08:03:32;98521.30;;;8.62;62.57
34921;BME280;21128;50.016;20.002;2023-04-26T08:05:59;98522.41;;;8.69;61.25
34921;BME280;21128;50.016;20.002;2023-04-26T08:08:27;98533.70;;;8.69;60.40
34921;BME280;21128;50.016;20.002;2023-04-26T08:10:55;98532.73;;;8.70;59.43
34921;BME280;21128;50.016;20.002;2023-04-26T08:13:22;98524.20;;;8.68;58.09
34921;BME280;21128;50.016;20.002;2023-04-26T08:15:49;98537.01;;;8.62;57.94
34921;BME280;21128;50.016;20.002;2023-04-26T08:18:16;98541.42;;;8.81;58.61
34921;BME280;21128;50.016;20.002;2023-04-26T08:20:43;98526.52;;;9.10;57.79
34921;BME280;21128;50.016;20.002;2023-04-26T08:23:10;98537.23;;;9.36;55.28
34921;BME280;21128;50.016;20.002;2023-04-26T08:25:38;98542.56;;;9.54;54.08
34921;BME280;21128;50.016;20.002;2023-04-26T08:28:05;98540.57;;;9.75;54.37
34921;BME280;21128;50.016;20.002;2023-04-26T08:30:34;98533.94;;;9.71;54.45
34921;BME280;21128;50.016;20.002;2023-04-26T08:33:02;98543.47;;;9.72;52.86
34921;BME280;21128;50.016;20.002;2023-04-26T08:35:29;98542.33;;;9.38;50.83
34921;BME280;21128;50.016;20.002;2023-04-26T08:37:56;98528.99;;;9.12;51.90
34921;BME280;21128;50.016;20.002;2023-04-26T08:40:23;98540.88;;;8.87;50.86
34921;BME280;21128;50.016;20.002;2023-04-26T08:42:51;98542.67;;;8.67;50.33
34921;BME280;21128;50.016;20.002;2023-04-26T08:45:23;98544.33;;;8.78;51.71
34921;BME280;21128;50.016;20.002;2023-04-26T08:47:58;98548.57;;;9.08;52.22
34921;BME280;21128;50.016;20.002;2023-04-26T08:50:29;98540.59;;;9.09;51.63
34921;BME280;21128;50.016;20.002;2023-04-26T08:52:57;98534.66;;;8.97;52.10
34921;BME280;21128;50.016;20.002;2023-04-26T08:55:24;98546.12;;;8.87;53.89
34921;BME280;21128;50.016;20.002;2023-04-26T08:57:53;98548.31;;;8.82;53.14
34921;BME280;21128;50.016;20.002;2023-04-26T09:00:20;98539.77;;;8.80;52.04
34921;BME280;21128;50.016;20.002;2023-04-26T09:02:50;98547.08;;;8.95;52.89
34921;BME280;21128;50.016;20.002;2023-04-26T09:05:19;98545.27;;;9.25;53.08
34921;BME280;21128;50.016;20.002;2023-04-26T09:07:56;98539.79;;;9.55;52.45
34921;BME280;21128;50.016;20.002;2023-04-26T09:10:23;98549.22;;;9.85;52.59
34921;BME280;21128;50.016;20.002;2023-04-26T09:12:51;98551.40;;;9.90;51.62
34921;BME280;21128;50.016;20.002;2023-04-26T09:15:23;98538.05;;;10.11;51.98
34921;BME280;21128;50.016;20.002;2023-04-26T09:17:50;98536.01;;;10.32;51.05
34921;BME280;21128;50.016;20.002;2023-04-26T09:20:28;98533.23;;;10.34;49.76
34921;BME280;21128;50.016;20.002;2023-04-26T09:25:33;98552.01;;;9.74;49.25
34921;BME280;21128;50.016;20.002;2023-04-26T09:28:01;98544.53;;;9.42;49.57
34921;BME280;21128;50.016;20.002;2023-04-26T09:30:30;98543.89;;;9.11;49.59
34921;BME280;21128;50.016;20.002;2023-04-26T09:33:03;98538.92;;;8.98;50.85
34921;BME280;21128;50.016;20.002;2023-04-26T09:38:05;98562.23;;;8.82;51.83
34921;BME280;21128;50.016;20.002;2023-04-26T09:40:52;98563.06;;;8.63;53.29
34921;BME280;21128;50.016;20.002;2023-04-26T09:43:38;98560.28;;;8.45;54.71
34921;BME280;21128;50.016;20.002;2023-04-26T09:46:21;98548.62;;;8.19;55.18
34921;BME280;21128;50.016;20.002;2023-04-26T09:49:01;98565.95;;;8.10;56.20
34921;BME280;21128;50.016;20.002;2023-04-26T09:51:29;98569.28;;;8.22;56.75
34921;BME280;21128;50.016;20.002;2023-04-26T09:53:56;98563.59;;;8.48;56.06
34921;BME280;21128;50.016;20.002;2023-04-26T09:56:23;98553.83;;;8.88;56.55
34921;BME280;21128;50.016;20.002;2023-04-26T09:59:13;98557.65;;;9.42;55.03
34921;BME280;21128;50.016;20.002;2023-04-26T10:01:40;98561.03;;;9.62;54.15
34921;BME280;21128;50.016;20.002;2023-04-26T10:04:07;98564.38;;;9.54;53.75
34921;BME280;21128;50.016;20.002;2023-04-26T10:06:59;98563.86;;;9.31;53.24
34921;BME280;21128;50.016;20.002;2023-04-26T10:09:38;98555.36;;;9.00;53.20
34921;BME280;21128;50.016;20.002;2023-04-26T10:12:11;98570.66;;;8.76;53.46
34921;BME280;21128;50.016;20.002;2023-04-26T10:14:44;98557.67;;;8.55;54.26
34921;BME280;21128;50.016;20.002;2023-04-26T10:17:14;98567.03;;;8.48;55.40
34921;BME280;21128;50.016;20.002;2023-04-26T10:19:52;98565.12;;;8.50;56.49
34921;BME280;21128;50.016;20.002;2023-04-26T10:22:29;98560.44;;;8.63;56.39
34921;BME280;21128;50.016;20.002;2023-04-26T10:25:10;98554.95;;;8.86;56.66
34921;BME280;21128;50.016;20.002;2023-04-26T10:27:47;98561.44;;;8.91;57.05
34921;BME280;21128;50.016;20.002;2023-04-26T10:30:18;98554.52;;;8.90;56.42
34921;BME280;21128;50.016;20.002;2023-04-26T10:35:30;98546.13;;;8.67;54.33
34921;BME280;21128;50.016;20.002;2023-04-26T10:40:46;98560.98;;;8.57;53.71
34921;BME280;21128;50.016;20.002;2023-04-26T10:45:45;98561.27;;;8.64;53.12
34921;BME280;21128;50.016;20.002;2023-04-26T10:48:30;98561.95;;;8.66;52.31
34921;BME280;21128;50.016;20.002;2023-04-26T10:53:31;98558.25;;;8.59;50.18
34921;BME280;21128;50.016;20.002;2023-04-26T10:55:58;98581.66;;;8.51;49.89
34921;BME280;21128;50.016;20.002;2023-04-26T10:58:29;98568.56;;;8.41;49.46
34921;BME280;21128;50.016;20.002;2023-04-26T11:01:04;98568.81;;;8.38;49.91
34921;BME280;21128;50.016;20.002;2023-04-26T11:03:31;98568.14;;;8.45;50.80
34921;BME280;21128;50.016;20.002;2023-04-26T11:05:59;98557.37;;;8.39;50.50
34921;BME280;21128;50.016;20.002;2023-04-26T11:08:30;98571.77;;;8.24;49.96
34921;BME280;21128;50.016;20.002;2023-04-26T11:11:09;98580.17;;;8.17;50.61
34921;BME280;21128;50.016;20.002;2023-04-26T11:13:39;98582.79;;;8.17;51.44
34921;BME280;21128;50.016;20.002;2023-04-26T11:16:14;98588.71;;;8.19;51.35
34921;BME280;21128;50.016;20.002;2023-04-26T11:18:44;98590.89;;;8.14;50.53
34921;BME280;21128;50.016;20.002;2023-04-26T11:21:12;98591.47;;;8.18;50.84
34921;BME280;21128;50.016;20.002;2023-04-26T11:23:53;98570.27;;;8.31;50.85
34921;BME280;21128;50.016;20.002;2023-04-26T11:26:21;98586.62;;;8.63;50.88
34921;BME280;21128;50.016;20.002;2023-04-26T11:28:48;98580.17;;;9.25;51.37
34921;BME280;21128;50.016;20.002;2023-04-26T11:31:17;98572.02;;;9.85;51.16
34921;BME280;21128;50.016;20.002;2023-04-26T11:33:44;98581.15;;;10.46;50.89
34921;BME280;21128;50.016;20.002;2023-04-26T11:36:11;98578.03;;;10.60;48.88
34921;BME280;21128;50.016;20.002;2023-04-26T11:38:38;98570.33;;;10.21;45.56
34921;BME280;21128;50.016;20.002;2023-04-26T11:41:06;98557.92;;;9.86;44.87
34921;BME280;21128;50.016;20.002;2023-04-26T11:43:38;98604.27;;;9.48;45.35
34921;BME280;21128;50.016;20.002;2023-04-26T11:46:06;98591.47;;;9.16;47.04
34921;BME280;21128;50.016;20.002;2023-04-26T11:48:36;98596.72;;;8.97;45.44
34921;BME280;21128;50.016;20.002;2023-04-26T11:51:04;98618.38;;;8.89;46.78
34921;BME280;21128;50.016;20.002;2023-04-26T11:53:40;98600.70;;;8.82;46.86
34921;BME280;21128;50.016;20.002;2023-04-26T11:56:18;98598.37;;;8.79;46.84
34921;BME280;21128;50.016;20.002;2023-04-26T11:58:50;98604.73;;;8.86;48.56
34921;BME280;21128;50.016;20.002;2023-04-26T12:01:25;98595.06;;;9.15;49.42
34921;BME280;21128;50.016;20.002;2023-04-26T12:03:54;98604.48;;;9.74;49.44
34921;BME280;21128;50.016;20.002;2023-04-26T12:06:29;98589.85;;;10.46;49.41
34921;BME280;21128;50.016;20.002;2023-04-26T12:08:56;98598.52;;;10.92;47.74
34921;BME280;21128;50.016;20.002;2023-04-26T12:11:23;98594.98;;;11.01;47.14
34921;BME280;21128;50.016;20.002;2023-04-26T12:13:51;98600.41;;;10.99;45.57
34921;BME280;21128;50.016;20.002;2023-04-26T12:16:18;98588.23;;;10.81;46.42
34921;BME280;21128;50.016;20.002;2023-04-26T12:18:49;98588.98;;;10.91;46.37
34921;BME280;21128;50.016;20.002;2023-04-26T12:21:18;98590.70;;;11.18;45.91
34921;BME280;21128;50.016;20.002;2023-04-26T12:23:45;98579.95;;;11.29;45.89
34921;BME280;21128;50.016;20.002;2023-04-26T12:26:13;98590.23;;;11.40;45.39
34921;BME280;21128;50.016;20.002;2023-04-26T12:28:41;98581.78;;;11.54;46.11
34921;BME280;21128;50.016;20.002;2023-04-26T12:31:08;98578.33;;;11.54;45.46
34921;BME280;21128;50.016;20.002;2023-04-26T12:33:35;98578.66;;;11.33;46.51
34921;BME280;21128;50.016;20.002;2023-04-26T12:36:10;98591.69;;;10.99;44.83
34921;BME280;21128;50.016;20.002;2023-04-26T12:38:38;98582.83;;;10.82;44.84
34921;BME280;21128;50.016;20.002;2023-04-26T12:41:06;98589.96;;;10.72;44.85
34921;BME280;21128;50.016;20.002;2023-04-26T12:43:33;98597.98;;;10.53;45.02
34921;BME280;21128;50.016;20.002;2023-04-26T12:46:00;98589.34;;;10.42;45.74
34921;BME280;21128;50.016;20.002;2023-04-26T12:48:27;98605.84;;;10.25;44.69
34921;BME280;21128;50.016;20.002;2023-04-26T12:50:54;98614.27;;;10.29;44.77
34921;BME280;21128;50.016;20.002;2023-04-26T12:53:21;98615.35;;;10.36;44.58
34921;BME280;21128;50.016;20.002;2023-04-26T12:55:48;98612.33;;;10.31;44.43
34921;BME280;21128;50.016;20.002;2023-04-26T12:58:15;98609.46;;;10.14;43.15
34921;BME280;21128;50.016;20.002;2023-04-26T13:00:42;98615.43;;;10.07;43.85
34921;BME280;21128;50.016;20.002;2023-04-26T13:03:09;98598.94;;;10.24;44.71
34921;BME280;21128;50.016;20.002;2023-04-26T13:05:39;98607.77;;;10.78;44.83
34921;BME280;21128;50.016;20.002;2023-04-26T13:08:07;98616.64;;;11.13;44.35
34921;BME280;21128;50.016;20.002;2023-04-26T13:10:34;98604.02;;;10.98;43.92
34921;BME280;21128;50.016;20.002;2023-04-26T13:13:01;98605.48;;;10.65;43.39
34921;BME280;21128;50.016;20.002;2023-04-26T13:15:28;98613.70;;;10.35;43.74
34921;BME280;21128;50.016;20.002;2023-04-26T13:17:55;98628.14;;;10.11;44.25
34921;BME280;21128;50.016;20.002;2023-04-26T13:20:22;98621.62;;;9.78;44.33